createdAt,value
2023-02-19T00:00:42.737Z,21.80
2023-02-19T00:03:12.173Z,24.98
2023-02-19T00:05:42.728Z,29.15
2023-02-19T00:08:12.594Z,29.83
2023-02-19T00:10:40.781Z,21.75
2023-02-19T00:13:18.175Z,20.88
2023-02-19T00:15:47.893Z,25.58
2023-02-19T00:18:20.110Z,25.80
2023-02-19T00:20:50.366Z,21.08
2023-02-19T00:23:31.552Z,24.45
2023-02-19T00:26:17.615Z,20.63
2023-02-19T00:28:52.206Z,21.02
2023-02-19T00:31:39.869Z,24.20
2023-02-19T00:34:12.550Z,23.40
2023-02-19T00:36:54.248Z,22.40
2023-02-19T00:39:22.297Z,25.05
2023-02-19T00:41:58.557Z,27.05
2023-02-19T00:44:38.170Z,20.83
2023-02-19T00:47:08.876Z,22.63
2023-02-19T00:49:48.470Z,21.98
2023-02-19T00:52:23.035Z,18.88
2023-02-19T00:54:58.830Z,27.25
2023-02-19T00:57:26.725Z,25.70
2023-02-19T00:59:59.022Z,20.00
2023-02-19T01:02:34.796Z,20.85
2023-02-19T01:05:04.667Z,26.23
2023-02-19T01:07:38.021Z,18.15
2023-02-19T01:10:15.342Z,17.35
2023-02-19T01:13:04.990Z,19.38
2023-02-19T01:15:35.137Z,19.88
2023-02-19T01:18:02.907Z,23.92
2023-02-19T01:20:30.433Z,20.38
2023-02-19T01:23:00.485Z,20.23
2023-02-19T01:25:29.938Z,21.08
2023-02-19T01:27:58.763Z,22.08
2023-02-19T01:30:26.468Z,20.25
2023-02-19T01:32:55.197Z,19.17
2023-02-19T01:35:25.719Z,23.90
2023-02-19T01:38:04.330Z,26.83
2023-02-19T01:40:36.045Z,20.67
2023-02-19T01:43:16.656Z,14.93
2023-02-19T01:45:48.556Z,22.75
2023-02-19T01:48:34.200Z,17.77
2023-02-19T01:51:22.432Z,21.08
2023-02-19T01:53:59.330Z,15.32
2023-02-19T01:56:31.393Z,21.83
2023-02-19T01:59:04.252Z,22.73
2023-02-19T02:01:43.342Z,19.88
2023-02-19T02:04:16.753Z,16.33
2023-02-19T02:07:29.458Z,21.92
2023-02-19T02:10:16.305Z,20.27
2023-02-19T02:12:43.638Z,22.40
2023-02-19T02:15:12.336Z,17.30
2023-02-19T02:18:27.303Z,17.52
2023-02-19T02:21:36.534Z,20.27
2023-02-19T02:24:52.169Z,21.08
2023-02-19T02:27:41.550Z,18.15
2023-02-19T02:30:42.132Z,23.67
2023-02-19T02:33:44.568Z,17.55
2023-02-19T02:36:34.738Z,22.90
2023-02-19T02:39:11.795Z,18.23
2023-02-19T02:42:14.700Z,18.73
2023-02-19T02:45:06.360Z,17.20
2023-02-19T02:47:58.607Z,18.35
2023-02-19T02:51:23.783Z,18.15
2023-02-19T02:54:28.152Z,31.10
2023-02-19T02:56:59.109Z,23.52
2023-02-19T02:59:39.342Z,16.48
2023-02-19T03:02:31.752Z,16.67
2023-02-19T03:08:32.509Z,23.48
2023-02-19T03:11:30.565Z,19.63
2023-02-19T03:14:44.803Z,14.90
2023-02-19T03:17:46.461Z,18.05
2023-02-19T03:20:18.678Z,17.75
2023-02-19T03:22:57.127Z,30.10
2023-02-19T03:25:52.701Z,13.07
2023-02-19T03:28:59.665Z,25.88
2023-02-19T03:31:33.275Z,21.00
2023-02-19T03:34:15.962Z,18.98
2023-02-19T03:37:04.840Z,12.30
2023-02-19T03:39:44.445Z,12.95
2023-02-19T03:43:10.695Z,20.10
2023-02-19T03:49:35.796Z,13.68
2023-02-19T03:52:35.983Z,16.08
2023-02-19T03:55:44.135Z,10.27
2023-02-19T03:58:58.393Z,19.52
2023-02-19T04:02:29.957Z,16.48
2023-02-19T04:05:24.885Z,15.95
2023-02-19T04:08:04.846Z,11.25
2023-02-19T04:10:44.842Z,15.13
2023-02-19T04:13:43.524Z,14.52
2023-02-19T04:16:24.730Z,15.38
2023-02-19T04:19:04.049Z,16.83
2023-02-19T04:21:35.072Z,13.02
2023-02-19T04:24:16.050Z,12.05
2023-02-19T04:26:49.588Z,14.70
2023-02-19T04:29:17.262Z,11.77
2023-02-19T04:31:53.122Z,12.25
2023-02-19T04:34:20.775Z,14.05
2023-02-19T04:36:49.601Z,13.68
2023-02-19T04:39:18.698Z,13.52
2023-02-19T04:41:49.996Z,13.07
2023-02-19T04:44:21.161Z,14.55
2023-02-19T04:47:03.273Z,19.65
2023-02-19T04:49:35.521Z,17.63
2023-02-19T04:52:06.248Z,15.48
2023-02-19T04:54:38.800Z,15.40
2023-02-19T04:57:20.449Z,13.38
2023-02-19T04:59:55.629Z,14.68
2023-02-19T05:02:32.098Z,13.43
2023-02-19T05:05:01.311Z,17.98
2023-02-19T05:07:34.504Z,14.65
2023-02-19T05:10:05.517Z,22.02
2023-02-19T05:12:40.560Z,16.40
2023-02-19T05:15:15.573Z,15.45
2023-02-19T05:20:38.977Z,20.42
2023-02-19T05:23:15.877Z,16.40
2023-02-19T05:25:46.429Z,12.32
2023-02-19T05:28:26.040Z,19.50
2023-02-19T05:30:56.996Z,11.75
2023-02-19T05:33:32.758Z,18.88
2023-02-19T05:36:09.095Z,13.07
2023-02-19T05:38:40.874Z,17.77
2023-02-19T05:41:16.864Z,11.82
2023-02-19T05:43:47.348Z,12.57
2023-02-19T05:46:29.576Z,10.48
2023-02-19T05:49:06.612Z,17.33
2023-02-19T05:51:47.008Z,14.82
2023-02-19T05:54:21.547Z,14.48
2023-02-19T05:56:56.234Z,22.50
2023-02-19T05:59:42.991Z,15.10
2023-02-19T06:02:22.733Z,16.35
2023-02-19T06:04:53.128Z,17.50
2023-02-19T06:07:20.787Z,12.57
2023-02-19T06:10:00.727Z,14.02
2023-02-19T06:12:29.571Z,15.30
2023-02-19T06:15:00.903Z,14.88
2023-02-19T06:17:32.056Z,12.18
2023-02-19T06:20:03.832Z,16.92
2023-02-19T06:22:31.479Z,15.45
2023-02-19T06:25:08.625Z,14.13
2023-02-19T06:27:39.993Z,19.80
2023-02-19T06:30:11.232Z,30.23
2023-02-19T06:32:40.301Z,17.63
2023-02-19T06:35:14.214Z,16.23
2023-02-19T06:37:42.274Z,15.50
2023-02-19T06:40:11.756Z,16.48
2023-02-19T06:42:45.938Z,21.00
2023-02-19T06:45:14.325Z,17.92
2023-02-19T06:47:43.812Z,16.98
2023-02-19T06:50:20.671Z,19.63
2023-02-19T06:52:48.125Z,18.23
2023-02-19T06:55:15.948Z,15.52
2023-02-19T06:57:45.030Z,17.65
2023-02-19T07:00:16.164Z,16.10
2023-02-19T07:02:44.523Z,20.80
2023-02-19T07:05:20.133Z,24.23
2023-02-19T07:07:55.415Z,22.48
2023-02-19T07:13:06.839Z,13.65
2023-02-19T07:15:37.714Z,16.27
2023-02-19T07:18:09.876Z,11.98
2023-02-19T07:20:41.648Z,11.88
2023-02-19T07:23:12.045Z,12.77
2023-02-19T07:25:43.142Z,15.63
2023-02-19T07:28:10.819Z,13.27
2023-02-19T07:30:47.713Z,13.65
2023-02-19T07:33:15.644Z,12.02
2023-02-19T07:35:51.636Z,10.95
2023-02-19T07:38:25.136Z,11.65
2023-02-19T07:41:06.127Z,16.55
2023-02-19T07:43:39.347Z,13.68
2023-02-19T07:46:37.027Z,10.20
2023-02-19T07:49:15.099Z,13.00
2023-02-19T07:52:03.908Z,16.92
2023-02-19T07:54:33.702Z,15.15
2023-02-19T07:57:14.676Z,23.52
2023-02-19T07:59:49.840Z,12.90
2023-02-19T08:02:40.549Z,19.55
2023-02-19T08:05:08.854Z,13.43
2023-02-19T08:07:46.704Z,16.42
2023-02-19T08:10:45.384Z,13.80
2023-02-19T08:16:40.847Z,16.63
2023-02-19T08:19:14.700Z,14.02
2023-02-19T08:21:46.055Z,16.30
2023-02-19T08:24:24.821Z,15.13
2023-02-19T08:26:58.278Z,13.55
2023-02-19T08:29:33.624Z,17.30
2023-02-19T08:32:10.760Z,18.25
2023-02-19T08:34:40.976Z,18.35
2023-02-19T08:37:17.562Z,18.00
2023-02-19T08:39:55.628Z,19.30
2023-02-19T08:42:31.329Z,18.67
2023-02-19T08:45:04.257Z,18.45
2023-02-19T08:47:39.106Z,19.55
2023-02-19T08:53:06.926Z,17.17
2023-02-19T08:55:44.005Z,14.77
2023-02-19T08:58:14.724Z,14.30
2023-02-19T09:03:41.867Z,13.23
2023-02-19T09:06:35.767Z,15.73
2023-02-19T09:09:22.651Z,12.77
2023-02-19T09:11:59.688Z,15.30
2023-02-19T09:14:27.899Z,16.85
2023-02-19T09:17:05.390Z,13.30
2023-02-19T09:23:56.624Z,16.67
2023-02-19T09:26:41.877Z,20.73
2023-02-19T09:32:05.871Z,15.02
2023-02-19T09:34:42.109Z,17.17
2023-02-19T09:37:33.165Z,11.30
2023-02-19T09:40:02.844Z,9.95
2023-02-19T09:45:30.597Z,13.77
2023-02-19T09:48:03.115Z,14.38
2023-02-19T09:50:42.041Z,11.27
2023-02-19T09:53:31.829Z,11.88
2023-02-19T09:56:03.951Z,11.20
2023-02-19T09:58:50.202Z,17.85
2023-02-19T10:01:28.719Z,10.40
2023-02-19T10:04:08.722Z,9.02
2023-02-19T10:06:53.868Z,9.00
2023-02-19T10:09:30.310Z,13.50
2023-02-19T10:17:37.775Z,11.18
2023-02-19T10:20:32.235Z,10.77
2023-02-19T10:29:11.058Z,10.07
2023-02-19T10:34:28.275Z,7.72
2023-02-19T10:37:04.029Z,7.47
2023-02-19T10:39:51.763Z,8.45
2023-02-19T10:42:35.913Z,7.53
2023-02-19T10:45:08.188Z,6.90
2023-02-19T10:47:37.396Z,6.18
2023-02-19T10:50:06.744Z,5.72
2023-02-19T10:52:42.972Z,5.07
2023-02-19T10:55:53.068Z,6.40
2023-02-19T10:58:27.853Z,6.35
2023-02-19T11:01:35.149Z,8.93
2023-02-19T11:04:21.757Z,7.43
2023-02-19T11:06:56.063Z,9.73
2023-02-19T11:09:41.459Z,12.55
2023-02-19T11:12:27.325Z,8.50
2023-02-19T11:15:27.686Z,9.63
2023-02-19T11:18:45.273Z,10.30
2023-02-19T11:21:34.919Z,9.00
2023-02-19T11:24:24.833Z,14.70
2023-02-19T11:27:15.720Z,8.68
2023-02-19T11:30:13.753Z,7.93
2023-02-19T11:33:47.981Z,6.93
2023-02-19T11:39:55.310Z,7.95
2023-02-19T11:43:29.504Z,9.75
2023-02-19T11:47:16.083Z,7.55
2023-02-19T11:50:37.021Z,6.25
2023-02-19T11:57:09.528Z,6.63
2023-02-19T12:00:38.680Z,10.18
2023-02-19T12:07:55.640Z,7.43
2023-02-19T12:11:29.391Z,6.18
2023-02-19T12:19:43.820Z,5.03
2023-02-19T12:23:19.335Z,8.52
2023-02-19T12:27:26.377Z,7.68
2023-02-19T12:30:59.303Z,5.63
2023-02-19T12:34:43.909Z,5.40
2023-02-19T12:38:37.875Z,6.47
2023-02-19T12:45:04.084Z,6.40
2023-02-19T12:48:04.220Z,7.25
2023-02-19T12:54:52.547Z,6.80
2023-02-19T13:01:07.097Z,8.55
2023-02-19T13:04:36.495Z,5.15
2023-02-19T13:08:09.086Z,3.30
2023-02-19T13:11:44.876Z,2.92
2023-02-19T13:18:06.782Z,4.13
2023-02-19T13:21:10.325Z,3.50
2023-02-19T13:24:03.240Z,4.55
2023-02-19T13:32:00.671Z,3.90
2023-02-19T13:39:07.486Z,5.50
2023-02-19T13:42:17.738Z,15.20
2023-02-19T13:49:18.904Z,9.75
2023-02-19T13:52:59.090Z,7.32
2023-02-19T13:56:08.253Z,4.50
2023-02-19T14:06:51.035Z,5.40
2023-02-19T14:10:06.028Z,11.43
2023-02-19T14:12:55.408Z,6.65
2023-02-19T14:15:52.648Z,8.18
2023-02-19T14:21:41.059Z,6.68
2023-02-19T14:24:18.624Z,8.85
2023-02-19T14:26:46.549Z,9.30
2023-02-19T14:29:37.898Z,5.43
2023-02-19T14:34:55.806Z,7.20
2023-02-19T14:37:30.143Z,7.05
2023-02-19T14:39:59.269Z,6.05
2023-02-19T14:42:34.116Z,5.15
2023-02-19T14:45:10.951Z,6.20
2023-02-19T14:47:42.210Z,4.60
2023-02-19T14:50:35.940Z,6.25
2023-02-19T14:53:09.094Z,9.88
2023-02-19T14:55:44.902Z,4.63
2023-02-19T14:58:41.318Z,5.35
2023-02-19T15:01:36.232Z,7.43
2023-02-19T15:04:28.171Z,5.55
2023-02-19T15:07:06.632Z,10.68
2023-02-19T15:09:51.968Z,5.95
2023-02-19T15:12:30.453Z,6.82
2023-02-19T15:15:06.256Z,6.97
2023-02-19T15:17:43.400Z,9.98
2023-02-19T15:20:19.640Z,6.72
2023-02-19T15:22:52.220Z,8.48
2023-02-19T15:28:26.153Z,7.40
2023-02-19T15:31:00.868Z,8.77
2023-02-19T15:33:30.898Z,8.70
2023-02-19T15:36:18.268Z,11.00
2023-02-19T15:39:04.378Z,11.32
2023-02-19T15:41:37.945Z,7.57
2023-02-19T15:44:48.114Z,8.77
2023-02-19T15:48:13.257Z,9.55
2023-02-19T15:51:00.987Z,14.90
2023-02-19T15:56:46.570Z,9.18
2023-02-19T15:59:29.518Z,8.68
2023-02-19T16:02:22.426Z,7.65
2023-02-19T16:05:29.555Z,6.57
2023-02-19T16:08:45.318Z,7.25
2023-02-19T16:11:52.793Z,6.75
2023-02-19T16:14:48.302Z,6.40
2023-02-19T16:17:24.469Z,6.00
2023-02-19T16:20:06.034Z,6.63
2023-02-19T16:22:43.530Z,6.90
2023-02-19T16:25:44.275Z,8.13
2023-02-19T16:28:27.530Z,5.95
2023-02-19T16:31:06.430Z,6.28
2023-02-19T16:33:48.772Z,7.63
2023-02-19T16:36:43.163Z,6.97
2023-02-19T16:39:27.215Z,7.72
2023-02-19T16:42:02.288Z,7.30
2023-02-19T16:44:36.000Z,7.93
2023-02-19T16:47:34.764Z,6.18
2023-02-19T16:50:23.354Z,6.00
2023-02-19T16:53:04.578Z,5.82
2023-02-19T16:55:41.050Z,5.30
2023-02-19T16:58:17.343Z,5.07
2023-02-19T17:00:48.318Z,5.43
2023-02-19T17:03:25.791Z,4.32
2023-02-19T17:05:57.177Z,7.05
2023-02-19T17:08:45.099Z,6.22
2023-02-19T17:11:18.577Z,6.47
2023-02-19T17:13:49.788Z,5.72
2023-02-19T17:16:29.626Z,8.07
2023-02-19T17:19:04.141Z,7.45
2023-02-19T17:21:39.748Z,6.82
2023-02-19T17:24:16.886Z,6.35
2023-02-19T17:26:59.801Z,6.35
2023-02-19T17:29:41.981Z,8.88
2023-02-19T17:32:21.002Z,8.18
2023-02-19T17:34:55.701Z,8.93
2023-02-19T17:37:32.483Z,6.50
2023-02-19T17:40:02.059Z,7.50
2023-02-19T17:42:30.499Z,6.88
2023-02-19T17:44:58.959Z,6.40
2023-02-19T17:47:29.471Z,7.63
2023-02-19T17:50:20.372Z,6.80
2023-02-19T17:53:01.682Z,8.15
2023-02-19T17:55:33.845Z,8.40
2023-02-19T17:58:05.359Z,8.63
2023-02-19T18:00:35.663Z,6.82
2023-02-19T18:03:18.599Z,8.20
2023-02-19T18:05:54.167Z,6.53
2023-02-19T18:08:25.779Z,7.30
2023-02-19T18:10:55.231Z,6.72
2023-02-19T18:13:33.590Z,9.40
2023-02-19T18:16:05.465Z,5.60
2023-02-19T18:18:34.190Z,4.93
2023-02-19T18:21:17.225Z,5.28
2023-02-19T18:23:57.322Z,6.63
2023-02-19T18:26:27.054Z,5.47
2023-02-19T18:29:01.627Z,4.03
2023-02-19T18:31:34.651Z,6.70
2023-02-19T18:34:07.006Z,7.40
2023-02-19T18:36:34.490Z,6.07
2023-02-19T18:39:04.519Z,8.15
2023-02-19T18:41:35.479Z,9.73
2023-02-19T18:44:10.706Z,9.60
2023-02-19T18:46:48.585Z,9.48
2023-02-19T18:49:27.065Z,7.45
2023-02-19T18:51:56.152Z,7.90
2023-02-19T18:54:27.445Z,6.53
2023-02-19T18:56:58.992Z,7.03
2023-02-19T18:59:29.535Z,6.88
2023-02-19T19:01:57.147Z,5.95
2023-02-19T19:04:25.794Z,4.72
2023-02-19T19:06:57.435Z,4.85
2023-02-19T19:09:29.093Z,4.38
2023-02-19T19:11:59.081Z,5.50
2023-02-19T19:14:28.537Z,6.35
2023-02-19T19:17:00.655Z,4.30
2023-02-19T19:19:29.815Z,4.60
2023-02-19T19:21:58.685Z,5.22
2023-02-19T19:24:27.384Z,6.25
2023-02-19T19:26:56.574Z,4.93
2023-02-19T19:29:27.352Z,6.45
2023-02-19T19:31:56.254Z,6.15
2023-02-19T19:34:23.729Z,6.60
2023-02-19T19:36:54.101Z,5.88
2023-02-19T19:39:23.508Z,5.15
2023-02-19T19:41:57.224Z,5.85
2023-02-19T19:44:29.948Z,5.22
2023-02-19T19:47:04.575Z,6.85
2023-02-19T19:49:34.646Z,5.82
2023-02-19T19:52:04.381Z,5.78
2023-02-19T19:54:31.798Z,5.13
2023-02-19T19:56:59.207Z,6.65
2023-02-19T19:59:28.699Z,7.40
2023-02-19T20:01:58.535Z,8.38
2023-02-19T20:04:28.164Z,5.75
2023-02-19T20:07:03.670Z,6.47
2023-02-19T20:09:32.053Z,5.90
2023-02-19T20:12:02.020Z,5.60
2023-02-19T20:14:31.373Z,4.40
2023-02-19T20:19:40.525Z,5.70
2023-02-19T20:25:06.402Z,5.78
2023-02-19T20:27:46.511Z,4.75
2023-02-19T20:30:20.266Z,5.43
2023-02-19T20:32:54.655Z,4.97
2023-02-19T20:35:34.104Z,4.47
2023-02-19T20:38:03.707Z,8.32
2023-02-19T20:40:49.094Z,4.53
2023-02-19T20:43:16.631Z,6.47
2023-02-19T20:45:46.336Z,7.50
2023-02-19T20:48:17.313Z,5.38
2023-02-19T20:51:02.006Z,6.40
2023-02-19T20:53:33.838Z,6.25
2023-02-19T20:56:02.993Z,5.88
2023-02-19T20:58:43.743Z,5.38
2023-02-19T21:04:06.162Z,6.03
2023-02-19T21:06:41.054Z,5.63
2023-02-19T21:09:21.425Z,5.45
2023-02-19T21:14:43.050Z,5.63
2023-02-19T21:17:14.863Z,6.00
2023-02-19T21:19:44.436Z,8.02
2023-02-19T21:22:15.365Z,5.07
2023-02-19T21:24:43.645Z,4.80
2023-02-19T21:27:11.611Z,6.53
2023-02-19T21:29:43.869Z,5.70
2023-02-19T21:32:11.960Z,5.15
2023-02-19T21:34:44.834Z,6.82
2023-02-19T21:37:15.085Z,6.63
2023-02-19T21:39:43.174Z,7.13
2023-02-19T21:42:11.543Z,6.30
2023-02-19T21:44:42.986Z,9.20
2023-02-19T21:47:12.724Z,8.55
2023-02-19T21:49:42.070Z,6.45
2023-02-19T21:52:12.518Z,7.47
2023-02-19T21:54:49.243Z,7.72
2023-02-19T21:57:18.330Z,7.03
2023-02-19T21:59:45.900Z,7.78
2023-02-19T22:02:36.181Z,6.97
2023-02-19T22:05:04.058Z,7.05
2023-02-19T22:07:31.549Z,6.45
2023-02-19T22:10:00.620Z,6.95
2023-02-19T22:12:28.061Z,7.10
2023-02-19T22:14:56.624Z,7.72
2023-02-19T22:17:28.174Z,7.38
2023-02-19T22:19:57.064Z,10.07
2023-02-19T22:22:26.252Z,10.43
2023-02-19T22:24:54.150Z,10.15
2023-02-19T22:27:25.438Z,11.75
2023-02-19T22:29:54.091Z,10.95
2023-02-19T22:32:24.780Z,14.75
2023-02-19T22:34:52.939Z,10.95
2023-02-19T22:37:21.561Z,14.82
2023-02-19T22:39:50.747Z,13.23
2023-02-19T22:42:19.103Z,14.27
2023-02-19T22:44:47.137Z,16.27
2023-02-19T22:47:15.170Z,15.48
2023-02-19T22:49:45.520Z,19.90
2023-02-19T22:52:13.673Z,18.33
2023-02-19T22:54:41.624Z,19.27
2023-02-19T22:57:11.357Z,18.33
2023-02-19T22:59:40.278Z,19.00
2023-02-19T23:02:10.450Z,18.10
2023-02-19T23:04:39.977Z,35.35
2023-02-19T23:07:08.571Z,16.70
2023-02-19T23:09:37.501Z,20.83
2023-02-19T23:12:11.285Z,20.00
2023-02-19T23:14:40.568Z,17.60
2023-02-19T23:17:08.422Z,16.85
2023-02-19T23:19:38.797Z,16.90
2023-02-19T23:22:06.850Z,18.15
2023-02-19T23:24:37.968Z,24.23
2023-02-19T23:27:07.506Z,17.77
2023-02-19T23:29:37.789Z,16.17
2023-02-19T23:32:09.795Z,18.45
2023-02-19T23:34:41.050Z,18.33
2023-02-19T23:37:10.033Z,18.38
2023-02-19T23:39:43.107Z,17.38
2023-02-19T23:42:17.645Z,21.25
2023-02-19T23:44:49.073Z,17.50
2023-02-19T23:47:16.692Z,17.85
2023-02-19T23:49:46.714Z,20.80
2023-02-19T23:52:14.191Z,17.42
2023-02-19T23:54:42.433Z,16.25
2023-02-19T23:57:10.334Z,19.35
2023-02-19T23:59:38.815Z,19.63
